Time;durP1;ratioP1;P1;durP2;ratioP2;P2;SDS_P1;SDS_P2;PMS_P1;PMS_P2;Temp;Humidity;BMP_temperature;BMP_pressure;BME280_temperature;BME280_humidity;BME280_pressure;Samples;Min_cycle;Max_cycle;Signal;HPM_P1;HPM_P2
2021/11/21 00:00:10;;;;;;;12.83;11.40;;;8.20;99.90;;;;;;5031398;28;20207;-57
2021/11/21 00:02:37;;;;;;;13.87;11.60;;;8.20;99.90;;;;;;5030834;28;20264;-56
2021/11/21 00:07:39;;;;;;;12.17;10.53;;;8.20;99.90;;;;;;5515695;23;20235;-56
2021/11/21 00:10:08;;;;;;;13.53;10.43;;;8.10;99.90;;;;;;4973094;28;20212;-56
2021/11/21 00:12:35;;;;;;;11.80;10.07;;;8.10;99.90;;;;;;4973300;28;20204;-57
2021/11/21 00:15:02;;;;;;;12.87;10.77;;;8.00;99.90;;;;;;4973421;28;20217;-57
2021/11/21 00:17:29;;;;;;;13.00;11.27;;;8.00;99.90;;;;;;4972916;28;20235;-57
2021/11/21 00:19:56;;;;;;;13.03;10.67;;;8.00;99.90;;;;;;4973796;28;20208;-56
2021/11/21 00:22:24;;;;;;;16.43;11.17;;;8.00;99.90;;;;;;4973435;28;20344;-56
2021/11/21 00:24:52;;;;;;;13.63;11.53;;;8.00;99.90;;;;;;4973483;28;20216;-56
2021/11/21 00:27:21;;;;;;;12.17;10.87;;;8.00;99.90;;;;;;4973039;28;20283;-56
2021/11/21 00:29:48;;;;;;;12.90;10.53;;;8.00;99.90;;;;;;4973418;28;20242;-56
2021/11/21 00:32:14;;;;;;;12.63;10.60;;;8.00;99.90;;;;;;4973104;28;20208;-56
2021/11/21 00:34:41;;;;;;;13.47;11.17;;;8.00;99.90;;;;;;4972900;28;20212;-56
2021/11/21 00:37:08;;;;;;;12.27;10.83;;;8.00;99.90;;;;;;4972577;28;20692;-56
2021/11/21 00:39:35;;;;;;;12.77;10.80;;;8.00;99.90;;;;;;4973293;28;20235;-56
2021/11/21 00:42:01;;;;;;;12.07;10.67;;;7.90;99.90;;;;;;4972867;28;20208;-56
2021/11/21 00:44:29;;;;;;;13.43;10.70;;;7.90;99.90;;;;;;4972785;28;20651;-55
2021/11/21 00:46:56;;;;;;;11.93;9.70;;;7.90;99.90;;;;;;4972477;28;20232;-55
2021/11/21 00:49:23;;;;;;;12.90;10.27;;;8.00;99.90;;;;;;4972875;28;20208;-55
2021/11/21 00:51:50;;;;;;;12.00;10.50;;;8.00;99.90;;;;;;4973145;28;20208;-56
2021/11/21 00:54:27;;;;;;;12.30;9.87;;;7.90;99.90;;;;;;4973170;28;20594;-56
2021/11/21 00:56:54;;;;;;;12.83;10.10;;;7.80;99.90;;;;;;4972489;28;20332;-56
2021/11/21 00:59:22;;;;;;;12.67;10.53;;;7.80;99.90;;;;;;4972861;28;20582;-56
2021/11/21 01:01:51;;;;;;;11.33;9.87;;;7.90;99.90;;;;;;4972873;28;20217;-56
2021/11/21 01:04:19;;;;;;;12.73;10.00;;;7.90;99.90;;;;;;4973447;28;20219;-56
2021/11/21 01:06:46;;;;;;;11.87;10.53;;;8.00;99.90;;;;;;4976465;28;20302;-56
2021/11/21 01:09:13;;;;;;;10.90;9.70;;;8.00;99.90;;;;;;4976395;28;20680;-56
2021/11/21 01:11:40;;;;;;;11.33;10.13;;;8.10;99.90;;;;;;4976485;28;20219;-56
2021/11/21 01:14:08;;;;;;;12.63;10.57;;;8.10;99.90;;;;;;4976325;28;20240;-56
2021/11/21 01:16:35;;;;;;;10.97;9.83;;;8.10;99.90;;;;;;4976003;28;20637;-56
2021/11/21 01:19:04;;;;;;;12.13;10.23;;;8.20;99.90;;;;;;4976479;28;20602;-56
2021/11/21 01:21:30;;;;;;;12.47;10.23;;;8.20;99.90;;;;;;4976564;28;20224;-56
2021/11/21 01:23:57;;;;;;;11.83;10.13;;;8.20;99.90;;;;;;4976402;28;20219;-56
2021/11/21 01:26:24;;;;;;;12.23;9.20;;;8.20;99.90;;;;;;4975912;28;20492;-56
2021/11/21 01:28:51;;;;;;;10.53;9.40;;;8.20;99.90;;;;;;4976074;28;20707;-56
2021/11/21 01:31:18;;;;;;;10.47;9.37;;;8.00;99.90;;;;;;4976032;28;20621;-55
2021/11/21 01:33:45;;;;;;;10.30;9.13;;;8.00;99.90;;;;;;4976213;28;20266;-56
2021/11/21 01:36:13;;;;;;;10.00;9.00;;;8.00;99.90;;;;;;4975817;28;20215;-56
2021/11/21 01:38:41;;;;;;;11.40;8.40;;;8.00;99.90;;;;;;4976035;28;20228;-56
2021/11/21 01:41:07;;;;;;;10.93;9.13;;;7.90;99.90;;;;;;4975932;28;20236;-56
2021/11/21 01:43:34;;;;;;;12.73;9.27;;;7.70;99.90;;;;;;4975721;28;20219;-56
2021/11/21 01:46:01;;;;;;;10.63;9.23;;;7.50;99.90;;;;;;4975848;28;20211;-56
2021/11/21 01:48:28;;;;;;;11.63;9.50;;;7.50;99.90;;;;;;4975590;28;20248;-56
2021/11/21 01:50:55;;;;;;;10.37;8.90;;;7.50;99.90;;;;;;4975749;28;20208;-56
2021/11/21 01:53:23;;;;;;;10.87;8.87;;;7.50;99.90;;;;;;4975700;28;20216;-56
2021/11/21 01:55:50;;;;;;;11.63;9.27;;;7.60;99.90;;;;;;4975585;28;20255;-56
2021/11/21 01:58:17;;;;;;;11.47;9.93;;;7.70;99.90;;;;;;4975107;28;20255;-56
2021/11/21 02:00:46;;;;;;;11.93;9.10;;;7.70;99.90;;;;;;4975798;28;20594;-55
2021/11/21 02:03:12;;;;;;;10.50;9.07;;;7.70;99.90;;;;;;4975409;28;20204;-56
2021/11/21 02:05:39;;;;;;;10.53;9.00;;;7.70;99.90;;;;;;4975489;28;20215;-56
2021/11/21 02:08:08;;;;;;;10.33;8.70;;;7.60;99.90;;;;;;4975057;28;20220;-56
2021/11/21 02:10:36;;;;;;;10.47;8.57;;;7.60;99.90;;;;;;4975159;28;20224;-56
2021/11/21 02:13:05;;;;;;;11.23;8.70;;;7.60;99.90;;;;;;4975527;28;20204;-56
2021/11/21 02:15:31;;;;;;;9.90;8.70;;;7.60;99.90;;;;;;4975271;28;20216;-56
2021/11/21 02:17:58;;;;;;;10.37;8.93;;;7.70;99.90;;;;;;4975025;28;20228;-56
2021/11/21 02:20:43;;;;;;;13.57;10.60;;;7.70;99.90;;;;;;4975326;28;20212;-56
2021/11/21 02:23:10;;;;;;;12.83;9.70;;;7.60;99.90;;;;;;4975176;28;20667;-55
2021/11/21 02:25:38;;;;;;;10.87;8.90;;;7.60;99.90;;;;;;4975308;28;20216;-56
2021/11/21 02:28:06;;;;;;;12.33;10.03;;;7.50;99.90;;;;;;4975051;28;20225;-56
2021/11/21 02:30:33;;;;;;;17.30;9.10;;;7.50;99.90;;;;;;4975002;28;20208;-56
2021/11/21 02:32:59;;;;;;;12.33;9.63;;;7.50;99.90;;;;;;4975055;28;20208;-56
2021/11/21 02:35:28;;;;;;;12.53;10.40;;;7.50;99.90;;;;;;4974708;28;20215;-56
2021/11/21 02:37:55;;;;;;;12.83;9.90;;;7.60;99.90;;;;;;4974809;28;20236;-56
2021/11/21 02:40:22;;;;;;;13.93;11.00;;;7.60;99.90;;;;;;4975092;28;20216;-56
2021/11/21 02:42:48;;;;;;;11.97;9.90;;;7.60;99.90;;;;;;4974835;28;20216;-56
2021/11/21 02:45:17;;;;;;;14.33;10.93;;;7.70;99.90;;;;;;4974803;28;20215;-55
2021/11/21 02:47:44;;;;;;;15.73;12.00;;;7.70;99.90;;;;;;4974363;28;20704;-56
2021/11/21 02:50:13;;;;;;;16.70;12.07;;;7.70;99.90;;;;;;4975233;28;20216;-56
2021/11/21 02:52:41;;;;;;;14.77;11.50;;;7.70;99.90;;;;;;4975094;28;20208;-56
2021/11/21 02:55:08;;;;;;;15.03;11.47;;;7.70;99.90;;;;;;4974654;28;20218;-56
2021/11/21 02:57:35;;;;;;;15.20;10.60;;;7.60;99.90;;;;;;4973972;28;20235;-56
2021/11/21 03:00:03;;;;;;;15.77;11.33;;;7.50;99.90;;;;;;4974515;28;20211;-56
2021/11/21 03:02:30;;;;;;;16.47;12.73;;;7.40;99.90;;;;;;4974259;28;20216;-55
2021/11/21 03:04:57;;;;;;;15.37;12.00;;;7.40;99.90;;;;;;4974505;28;20208;-55
2021/11/21 03:07:24;;;;;;;16.87;12.43;;;7.30;99.90;;;;;;4974227;28;20248;-55
2021/11/21 03:09:53;;;;;;;16.17;12.50;;;7.40;99.90;;;;;;4974073;28;20717;-55
2021/11/21 03:12:20;;;;;;;17.43;12.43;;;7.50;99.90;;;;;;4974545;28;20216;-55
2021/11/21 03:14:47;;;;;;;16.53;12.23;;;7.50;99.90;;;;;;4974189;28;20231;-56
2021/11/21 03:17:14;;;;;;;19.67;13.40;;;7.50;99.90;;;;;;4973589;28;20291;-55
2021/11/21 03:19:40;;;;;;;19.43;13.27;;;7.50;99.90;;;;;;4974305;28;20625;-55
2021/11/21 03:22:07;;;;;;;18.10;13.20;;;7.50;99.90;;;;;;4974137;28;20204;-55
2021/11/21 03:24:34;;;;;;;17.23;12.57;;;7.40;99.90;;;;;;4974049;28;20776;-56
2021/11/21 03:27:02;;;;;;;17.43;12.93;;;7.40;99.90;;;;;;4973204;28;20229;-56
2021/11/21 03:29:29;;;;;;;18.77;12.90;;;7.40;99.90;;;;;;4973898;28;20204;-56
2021/11/21 03:31:56;;;;;;;15.93;11.77;;;7.30;99.90;;;;;;4973842;28;20216;-56
2021/11/21 03:34:22;;;;;;;17.03;11.90;;;7.20;99.90;;;;;;4974454;28;20208;-56
2021/11/21 03:36:49;;;;;;;16.77;12.33;;;7.20;99.90;;;;;;4974034;28;20229;-56
2021/11/21 03:39:16;;;;;;;16.30;12.10;;;7.20;99.90;;;;;;4973984;28;20219;-56
2021/11/21 03:41:42;;;;;;;15.07;11.17;;;7.20;99.90;;;;;;4973799;28;20208;-56
2021/11/21 03:44:11;;;;;;;16.77;11.90;;;7.10;99.90;;;;;;4973696;28;20204;-56
2021/11/21 03:46:39;;;;;;;14.77;11.27;;;7.00;99.90;;;;;;4973083;28;20231;-56
2021/11/21 03:49:07;;;;;;;14.40;10.33;;;6.90;99.90;;;;;;4974092;28;20215;-54
2021/11/21 03:51:34;;;;;;;15.13;11.63;;;6.70;99.90;;;;;;4973894;28;20208;-56
2021/11/21 03:54:01;;;;;;;14.60;10.93;;;6.60;99.90;;;;;;4973842;28;20224;-55
2021/11/21 03:56:28;;;;;;;18.20;12.20;;;6.50;99.90;;;;;;4973273;28;20208;-55
2021/11/21 03:58:54;;;;;;;20.00;13.77;;;6.40;99.90;;;;;;4973356;28;20228;-54
2021/11/21 04:01:22;;;;;;;17.17;13.00;;;6.30;99.90;;;;;;4973606;28;20207;-55
2021/11/21 04:03:49;;;;;;;18.07;13.10;;;6.40;99.90;;;;;;4973457;28;20690;-55
2021/11/21 04:06:16;;;;;;;18.10;12.47;;;6.50;99.90;;;;;;4973326;28;20212;-55
2021/11/21 04:08:44;;;;;;;17.40;12.57;;;6.60;99.90;;;;;;4973222;28;20232;-55
2021/11/21 04:11:11;;;;;;;18.70;12.67;;;6.70;99.90;;;;;;4973284;28;20222;-54
2021/11/21 04:13:37;;;;;;;59.60;37.67;;;6.80;99.90;;;;;;4973618;28;20625;-55
2021/11/21 04:16:05;;;;;;;29.40;17.90;;;7.00;99.90;;;;;;4973391;28;20594;-55
2021/11/21 04:18:33;;;;;;;45.70;25.13;;;7.00;99.90;;;;;;4973188;28;20239;-55
2021/11/21 04:21:00;;;;;;;28.97;17.83;;;7.10;99.90;;;;;;4973505;28;20208;-55
2021/11/21 04:23:30;;;;;;;18.93;14.10;;;7.10;99.90;;;;;;4973312;28;20211;-56
2021/11/21 04:25:56;;;;;;;20.47;14.30;;;7.20;99.90;;;;;;4973236;28;20204;-55
2021/11/21 04:28:23;;;;;;;19.30;14.30;;;7.20;99.90;;;;;;4973378;28;20255;-55
2021/11/21 04:30:51;;;;;;;17.77;13.03;;;7.30;99.90;;;;;;4973582;28;20344;-55
2021/11/21 04:33:18;;;;;;;16.87;12.23;;;7.30;99.90;;;;;;4973288;28;20212;-55
2021/11/21 04:35:46;;;;;;;18.07;12.77;;;7.30;99.90;;;;;;4973207;28;20204;-55
2021/11/21 04:38:12;;;;;;;18.80;12.87;;;7.30;99.90;;;;;;4972815;28;20612;-55
2021/11/21 04:40:39;;;;;;;18.87;13.37;;;7.30;99.90;;;;;;4975391;28;20286;-55
2021/11/21 04:43:06;;;;;;;17.50;12.73;;;7.20;99.90;;;;;;4977243;28;20631;-55
2021/11/21 04:45:33;;;;;;;17.00;11.97;;;7.20;99.90;;;;;;4977136;28;20242;-55
2021/11/21 04:47:59;;;;;;;17.53;12.73;;;7.20;99.90;;;;;;4976726;28;20224;-55
2021/11/21 04:50:26;;;;;;;17.97;12.60;;;7.10;99.90;;;;;;4977007;28;20212;-55
2021/11/21 04:52:54;;;;;;;18.73;12.33;;;7.10;99.90;;;;;;4976749;28;20216;-55
2021/11/21 04:55:21;;;;;;;17.33;12.73;;;7.20;99.90;;;;;;4976760;28;20212;-55
2021/11/21 04:57:48;;;;;;;15.90;11.77;;;7.20;99.90;;;;;;4976538;28;20236;-56
2021/11/21 05:00:19;;;;;;;16.47;11.90;;;7.10;99.90;;;;;;4976750;28;20585;-56
2021/11/21 05:02:47;;;;;;;16.00;12.10;;;7.10;99.90;;;;;;4976925;28;20208;-57
2021/11/21 05:05:15;;;;;;;16.67;12.20;;;7.20;99.90;;;;;;4976739;28;20223;-56
2021/11/21 05:07:42;;;;;;;15.87;12.13;;;7.30;99.90;;;;;;4976459;28;20231;-56
2021/11/21 05:10:11;;;;;;;17.70;12.37;;;7.30;99.90;;;;;;4976690;28;20224;-56
2021/11/21 05:12:38;;;;;;;15.60;11.93;;;7.30;99.90;;;;;;4976822;28;20303;-57
2021/11/21 05:15:07;;;;;;;16.50;11.67;;;7.40;99.90;;;;;;4976692;28;20208;-57
2021/11/21 05:17:34;;;;;;;16.70;11.37;;;7.40;99.90;;;;;;4976281;28;20243;-56
2021/11/21 05:20:01;;;;;;;17.07;12.03;;;7.40;99.90;;;;;;4976526;28;20204;-56
2021/11/21 05:22:28;;;;;;;18.33;11.77;;;7.40;99.90;;;;;;4976761;28;20219;-57
2021/11/21 05:24:55;;;;;;;16.87;12.27;;;7.40;99.90;;;;;;4976252;28;20208;-57
2021/11/21 05:27:24;;;;;;;19.97;11.80;;;7.40;99.90;;;;;;4976131;28;20700;-56
2021/11/21 05:29:51;;;;;;;17.07;12.07;;;7.40;99.90;;;;;;4976268;28;20236;-56
2021/11/21 05:32:18;;;;;;;20.83;11.30;;;7.20;99.90;;;;;;4976316;28;20219;-56
2021/11/21 05:34:44;;;;;;;17.43;11.57;;;7.20;99.90;;;;;;4976087;28;20224;-57
2021/11/21 05:37:12;;;;;;;16.53;11.83;;;7.20;99.90;;;;;;4975958;28;20224;-56
2021/11/21 05:39:38;;;;;;;16.83;12.00;;;7.20;99.90;;;;;;4976123;28;20239;-56
2021/11/21 05:42:06;;;;;;;18.27;11.57;;;7.20;99.90;;;;;;4976209;28;20216;-56
2021/11/21 05:44:34;;;;;;;19.53;12.20;;;7.30;99.90;;;;;;4975953;28;20738;-56
2021/11/21 05:47:00;;;;;;;16.90;12.00;;;7.30;99.90;;;;;;4975600;28;20462;-56
2021/11/21 05:49:27;;;;;;;16.37;11.57;;;7.30;99.90;;;;;;4975848;28;20240;-56
2021/11/21 05:51:54;;;;;;;16.53;11.33;;;7.30;99.90;;;;;;4975612;28;20627;-56
2021/11/21 05:54:20;;;;;;;17.83;12.33;;;7.30;99.90;;;;;;4976050;28;20212;-56
2021/11/21 05:56:47;;;;;;;17.53;12.37;;;7.20;99.90;;;;;;4975664;28;20228;-56
2021/11/21 05:59:14;;;;;;;17.87;12.10;;;7.10;99.90;;;;;;4975601;28;20704;-56
2021/11/21 06:01:42;;;;;;;18.73;12.87;;;7.10;99.90;;;;;;4975642;28;20204;-56
2021/11/21 06:04:09;;;;;;;19.43;12.50;;;7.10;99.90;;;;;;4975877;28;20212;-57
2021/11/21 06:06:35;;;;;;;16.30;11.17;;;7.10;99.90;;;;;;4975280;28;20204;-57
2021/11/21 06:09:03;;;;;;;18.30;11.63;;;7.10;99.90;;;;;;4975944;28;20211;-56
2021/11/21 06:11:29;;;;;;;15.43;11.23;;;7.00;99.90;;;;;;4975477;28;20214;-56
2021/11/21 06:13:56;;;;;;;17.30;11.90;;;7.00;99.90;;;;;;4975475;28;20205;-56
2021/11/21 06:16:23;;;;;;;16.13;11.17;;;7.00;99.90;;;;;;4975198;28;20208;-56
2021/11/21 06:18:51;;;;;;;15.60;10.77;;;7.00;99.90;;;;;;4975238;28;20258;-57
2021/11/21 06:21:18;;;;;;;16.20;11.43;;;7.00;99.90;;;;;;4975934;28;20220;-57
2021/11/21 06:23:44;;;;;;;14.53;10.70;;;7.00;99.90;;;;;;4975394;28;20208;-57
2021/11/21 06:26:12;;;;;;;15.00;10.90;;;7.00;99.90;;;;;;4975143;28;20212;-57
2021/11/21 06:28:39;;;;;;;16.70;10.87;;;7.00;99.90;;;;;;4974925;28;20279;-56
2021/11/21 06:31:06;;;;;;;14.97;10.80;;;7.00;99.90;;;;;;4974964;28;20204;-56
2021/11/21 06:33:33;;;;;;;14.40;10.87;;;7.00;99.90;;;;;;4975208;28;20216;-57
2021/11/21 06:36:02;;;;;;;14.47;10.87;;;7.10;99.90;;;;;;4975372;28;20235;-57
2021/11/21 06:38:30;;;;;;;15.47;10.47;;;7.10;99.90;;;;;;4975198;28;20236;-57
2021/11/21 06:40:56;;;;;;;19.30;12.60;;;7.20;99.90;;;;;;4974986;28;20703;-56
2021/11/21 06:43:23;;;;;;;20.27;14.90;;;7.20;99.90;;;;;;4974994;28;20263;-56
2021/11/21 06:45:50;;;;;;;19.40;13.90;;;7.10;99.90;;;;;;4975097;28;20205;-57
2021/11/21 06:48:19;;;;;;;16.00;12.20;;;7.10;99.90;;;;;;4974689;28;20228;-57
2021/11/21 06:50:48;;;;;;;14.47;10.80;;;7.10;99.90;;;;;;4974870;28;20216;-56
2021/11/21 06:53:16;;;;;;;16.07;12.00;;;7.20;99.90;;;;;;4974805;28;20689;-56
2021/11/21 06:55:43;;;;;;;18.20;11.93;;;7.10;99.90;;;;;;4974799;28;20208;-57
2021/11/21 06:58:10;;;;;;;14.83;10.83;;;7.10;99.90;;;;;;4974238;28;20286;-57
2021/11/21 07:00:37;;;;;;;15.13;11.27;;;7.10;99.90;;;;;;4975146;28;20209;-57
2021/11/21 07:03:04;;;;;;;12.93;10.20;;;7.20;99.90;;;;;;4974298;28;20362;-57
2021/11/21 07:05:30;;;;;;;14.63;10.90;;;7.20;99.90;;;;;;4974953;28;20215;-56
2021/11/21 07:07:57;;;;;;;15.27;11.03;;;7.20;99.90;;;;;;4974306;28;20609;-56
2021/11/21 07:10:25;;;;;;;23.40;15.83;;;7.30;99.90;;;;;;4974418;28;20304;-57
2021/11/21 07:12:52;;;;;;;18.00;11.53;;;7.30;99.90;;;;;;4974575;28;20211;-57
2021/11/21 07:15:19;;;;;;;16.30;12.00;;;7.30;99.90;;;;;;4974509;28;20275;-57
2021/11/21 07:17:48;;;;;;;16.20;12.20;;;7.20;99.90;;;;;;4974278;28;20282;-57
2021/11/21 07:20:16;;;;;;;16.70;12.20;;;7.20;99.90;;;;;;4974418;28;20240;-57
2021/11/21 07:22:43;;;;;;;15.30;11.60;;;7.20;99.90;;;;;;4974100;28;20208;-55
2021/11/21 07:25:12;;;;;;;14.73;10.50;;;7.20;99.90;;;;;;4973956;28;20295;-55
2021/11/21 07:27:41;;;;;;;14.03;10.43;;;7.20;99.90;;;;;;4973898;28;20228;-57
2021/11/21 07:30:08;;;;;;;15.43;11.37;;;7.20;99.90;;;;;;4974199;28;20207;-57
2021/11/21 07:32:35;;;;;;;14.83;10.87;;;7.30;99.90;;;;;;4973913;28;20626;-57
2021/11/21 07:35:01;;;;;;;17.17;12.43;;;7.40;99.90;;;;;;4974093;28;20212;-57
2021/11/21 07:37:28;;;;;;;18.53;12.20;;;7.40;99.90;;;;;;4973563;28;20604;-56
2021/11/21 07:39:55;;;;;;;16.03;11.57;;;7.40;99.90;;;;;;4974117;28;20236;-57
2021/11/21 07:42:21;;;;;;;16.23;12.10;;;7.50;99.90;;;;;;4973996;28;20203;-56
2021/11/21 07:44:49;;;;;;;23.73;18.47;;;7.50;99.90;;;;;;4973770;28;20676;-57
2021/11/21 07:47:16;;;;;;;14.50;11.50;;;7.50;99.90;;;;;;4973969;28;20228;-57
2021/11/21 07:49:43;;;;;;;16.60;11.60;;;7.50;99.90;;;;;;4973928;28;20205;-57
2021/11/21 07:52:10;;;;;;;19.37;12.80;;;7.50;99.90;;;;;;4973741;28;20282;-57
2021/11/21 07:54:37;;;;;;;14.87;11.23;;;7.50;99.90;;;;;;4974012;28;20208;-57
2021/11/21 07:57:04;;;;;;;16.53;11.77;;;7.60;99.90;;;;;;4973461;28;20223;-57
2021/11/21 07:59:30;;;;;;;14.50;11.13;;;7.60;99.90;;;;;;4973542;28;20224;-57
2021/11/21 08:01:58;;;;;;;15.83;11.73;;;7.70;99.90;;;;;;4973733;28;20208;-57
2021/11/21 08:04:25;;;;;;;16.83;11.73;;;7.70;99.90;;;;;;4973583;28;20219;-57
2021/11/21 08:06:53;;;;;;;17.23;12.37;;;7.70;99.90;;;;;;4973227;28;20224;-57
2021/11/21 08:09:20;;;;;;;16.97;13.17;;;7.80;99.90;;;;;;4973716;28;20303;-57
2021/11/21 08:11:46;;;;;;;15.50;11.70;;;7.70;99.90;;;;;;4973451;28;20216;-57
2021/11/21 08:14:13;;;;;;;16.57;11.93;;;7.60;99.90;;;;;;4973226;28;20224;-57
2021/11/21 08:16:41;;;;;;;15.10;11.43;;;7.40;99.90;;;;;;4973457;28;20212;-57
2021/11/21 08:19:11;;;;;;;14.23;10.47;;;7.50;99.90;;;;;;4973222;28;20250;-57
2021/11/21 08:21:38;;;;;;;17.67;12.43;;;7.40;99.90;;;;;;4973289;28;20607;-57
2021/11/21 08:24:07;;;;;;;16.03;11.07;;;7.40;99.90;;;;;;4973340;28;20204;-57
2021/11/21 08:26:34;;;;;;;14.53;10.47;;;7.50;99.90;;;;;;4973038;28;20212;-56
2021/11/21 08:29:01;;;;;;;16.40;11.43;;;7.30;99.90;;;;;;4973148;28;20219;-56
2021/11/21 08:31:27;;;;;;;15.57;11.30;;;7.30;99.90;;;;;;4973449;28;20208;-57
2021/11/21 08:33:54;;;;;;;19.27;13.03;;;7.10;99.90;;;;;;4973043;28;20633;-56
2021/11/21 08:36:22;;;;;;;18.83;13.10;;;7.00;99.90;;;;;;4973243;28;20299;-56
2021/11/21 08:38:49;;;;;;;16.47;12.93;;;6.80;99.90;;;;;;4972943;28;20224;-58
2021/11/21 08:41:16;;;;;;;18.73;13.50;;;7.00;99.90;;;;;;4973147;28;20208;-57
2021/11/21 08:43:43;;;;;;;17.63;12.73;;;7.10;99.90;;;;;;4973260;28;20212;-57
2021/11/21 08:46:09;;;;;;;17.20;12.50;;;7.30;99.90;;;;;;4973135;28;20227;-57
2021/11/21 08:48:36;;;;;;;18.43;12.40;;;7.30;99.90;;;;;;4973454;28;20240;-57
2021/11/21 08:51:04;;;;;;;18.53;12.80;;;7.40;99.90;;;;;;4973470;28;20208;-57
2021/11/21 08:53:32;;;;;;;18.43;12.70;;;7.70;99.90;;;;;;4973365;28;20650;-56
2021/11/21 08:55:58;;;;;;;17.00;12.20;;;7.80;99.90;;;;;;4973425;28;20216;-57
2021/11/21 08:58:25;;;;;;;16.90;12.77;;;8.10;99.90;;;;;;4972933;28;20239;-57
2021/11/21 09:00:52;;;;;;;17.73;12.73;;;8.40;99.90;;;;;;4973478;28;20219;-57
2021/11/21 09:03:19;;;;;;;16.37;11.53;;;8.50;99.90;;;;;;4973522;28;20212;-57
2021/11/21 09:05:46;;;;;;;13.90;9.93;;;8.50;99.90;;;;;;4973569;28;20208;-57
2021/11/21 09:08:12;;;;;;;12.40;9.60;;;8.40;99.90;;;;;;4973185;28;20231;-57
2021/11/21 09:10:41;;;;;;;11.60;8.97;;;8.30;99.90;;;;;;4973116;28;20217;-57
2021/11/21 09:13:08;;;;;;;12.77;8.33;;;8.30;99.90;;;;;;4973086;28;20211;-57
2021/11/21 09:15:35;;;;;;;13.07;8.30;;;8.20;99.90;;;;;;4973197;28;20224;-57
2021/11/21 09:18:02;;;;;;;13.20;9.43;;;8.20;99.90;;;;;;4973025;28;20227;-59
2021/11/21 09:20:29;;;;;;;12.37;7.37;;;8.10;99.90;;;;;;4973434;28;20228;-57
2021/11/21 09:22:55;;;;;;;10.53;7.57;;;7.90;99.90;;;;;;4973344;28;20231;-58
2021/11/21 09:25:24;;;;;;;12.43;9.00;;;8.00;99.90;;;;;;4973524;28;20209;-57
2021/11/21 09:27:52;;;;;;;12.43;8.60;;;8.10;99.90;;;;;;4976280;28;20232;-57
2021/11/21 09:30:22;;;;;;;11.10;8.00;;;8.00;99.90;;;;;;4976806;28;20208;-58
2021/11/21 09:32:49;;;;;;;11.23;7.97;;;7.90;99.90;;;;;;4976639;28;20727;-58
2021/11/21 09:35:16;;;;;;;11.40;8.13;;;7.90;99.90;;;;;;4976836;28;20259;-58
2021/11/21 09:37:42;;;;;;;10.33;7.47;;;7.90;99.90;;;;;;4976654;28;20232;-58
2021/11/21 09:40:11;;;;;;;11.90;7.77;;;8.00;99.90;;;;;;4977855;28;20227;-57
2021/11/21 09:42:38;;;;;;;9.37;7.10;;;8.10;99.90;;;;;;4978174;28;20212;-58
2021/11/21 09:45:10;;;;;;;10.73;7.30;;;8.10;99.90;;;;;;4977021;28;20215;-58
2021/11/21 09:47:36;;;;;;;10.47;7.33;;;8.10;99.90;;;;;;4976446;28;20255;-57
2021/11/21 09:50:06;;;;;;;11.97;7.97;;;8.10;99.90;;;;;;4976603;28;20207;-57
2021/11/21 09:52:33;;;;;;;10.50;7.87;;;8.10;99.90;;;;;;4976320;28;20212;-58
2021/11/21 09:55:00;;;;;;;11.40;8.13;;;8.20;99.90;;;;;;4976193;28;20209;-56
2021/11/21 09:57:29;;;;;;;11.33;8.33;;;8.10;99.90;;;;;;4975791;28;20228;-58
2021/11/21 09:59:59;;;;;;;12.13;8.17;;;8.20;99.90;;;;;;4976327;28;20243;-57
2021/11/21 10:02:30;;;;;;;13.13;10.30;;;8.30;99.90;;;;;;4974677;28;20853;-60
2021/11/21 10:04:58;;;;;;;11.43;8.60;;;8.40;99.90;;;;;;4976411;28;20255;-58
2021/11/21 10:07:27;;;;;;;13.60;8.77;;;8.60;99.90;;;;;;4975609;28;20604;-59
2021/11/21 10:09:56;;;;;;;11.30;8.33;;;8.60;99.90;;;;;;4976167;28;20208;-58
2021/11/21 10:12:23;;;;;;;11.03;8.30;;;8.60;99.90;;;;;;4975741;28;20220;-58
2021/11/21 10:15:00;;;;;;;11.03;8.13;;;8.60;99.90;;;;;;4975676;28;20267;-57
2021/11/21 10:17:30;;;;;;;15.80;8.47;;;8.50;99.90;;;;;;4975393;28;20634;-57
2021/11/21 10:20:16;;;;;;;11.33;8.20;;;8.30;99.90;;;;;;4975546;28;20224;-57
2021/11/21 10:22:54;;;;;;;10.17;7.33;;;8.00;99.90;;;;;;4975603;28;20208;-58
2021/11/21 10:25:53;;;;;;;9.07;7.27;;;7.60;99.90;;;;;;4975792;28;20211;-58
2021/11/21 10:28:24;;;;;;;13.63;8.10;;;7.50;99.90;;;;;;4974882;28;20671;-58
2021/11/21 10:30:57;;;;;;;10.90;7.77;;;7.40;99.90;;;;;;4975196;28;20615;-58
2021/11/21 10:33:27;;;;;;;9.00;7.00;;;7.40;99.90;;;;;;4975197;28;20232;-57
2021/11/21 10:35:56;;;;;;;9.30;6.67;;;7.50;99.90;;;;;;4975076;28;20212;-57
2021/11/21 10:38:33;;;;;;;9.20;6.40;;;7.50;99.90;;;;;;4974559;28;20753;-57
2021/11/21 10:41:00;;;;;;;8.73;6.53;;;7.40;99.90;;;;;;4974837;28;20319;-58
2021/11/21 10:43:27;;;;;;;11.03;7.50;;;7.40;99.90;;;;;;4975082;28;20208;-57
2021/11/21 10:45:55;;;;;;;12.20;7.30;;;7.50;99.90;;;;;;4974650;28;20208;-59
2021/11/21 10:48:27;;;;;;;10.87;6.93;;;7.60;99.90;;;;;;4974759;28;20641;-58
2021/11/21 10:50:54;;;;;;;7.40;5.57;;;7.80;99.90;;;;;;4974997;28;20248;-58
2021/11/21 10:53:22;;;;;;;9.10;6.47;;;7.80;99.90;;;;;;4974864;28;20664;-58
2021/11/21 10:56:10;;;;;;;8.90;6.13;;;7.60;99.90;;;;;;4974605;28;20740;-57
2021/11/21 10:58:46;;;;;;;9.43;6.10;;;7.30;99.90;;;;;;4974398;28;20720;-57
2021/11/21 11:01:20;;;;;;;11.07;5.93;;;7.10;99.90;;;;;;4974728;28;20279;-57
2021/11/21 11:04:11;;;;;;;9.97;5.87;;;7.10;99.90;;;;;;4974575;28;20257;-56
2021/11/21 11:06:38;;;;;;;7.77;5.10;;;7.10;99.90;;;;;;4974730;28;20216;-57
2021/11/21 11:09:20;;;;;;;7.47;5.00;;;7.20;99.90;;;;;;4974610;28;20211;-59
2021/11/21 11:11:47;;;;;;;7.30;4.90;;;7.30;99.90;;;;;;4974757;28;20255;-58
2021/11/21 11:14:18;;;;;;;6.23;4.60;;;7.20;99.90;;;;;;4974176;28;20336;-56
2021/11/21 11:16:49;;;;;;;8.07;4.70;;;7.00;99.90;;;;;;4974136;28;20275;-57
2021/11/21 11:19:19;;;;;;;5.03;3.77;;;6.90;99.90;;;;;;4973937;28;20215;-56
2021/11/21 11:21:49;;;;;;;7.77;4.60;;;6.90;99.90;;;;;;4974307;28;20582;-56
2021/11/21 11:24:16;;;;;;;7.10;5.00;;;7.00;99.90;;;;;;4974184;28;20262;-55
2021/11/21 11:26:43;;;;;;;5.93;4.37;;;7.10;99.90;;;;;;4974061;28;20291;-59
2021/11/21 11:29:16;;;;;;;5.87;4.00;;;7.30;99.90;;;;;;4973975;28;20727;-59
2021/11/21 11:31:43;;;;;;;7.80;5.63;;;7.50;99.90;;;;;;4974031;28;20367;-58
2021/11/21 11:34:35;;;;;;;7.30;4.50;;;7.50;99.90;;;;;;4974221;28;20204;-58
2021/11/21 11:37:03;;;;;;;7.60;5.03;;;7.60;99.90;;;;;;4973685;28;20647;-57
2021/11/21 11:39:39;;;;;;;6.43;4.80;;;7.80;99.90;;;;;;4974398;28;20216;-58
2021/11/21 11:42:36;;;;;;;7.40;5.10;;;7.90;99.90;;;;;;4973926;28;20208;-58
2021/11/21 11:45:07;;;;;;;6.87;4.70;;;8.00;99.90;;;;;;4973808;28;20234;-58
2021/11/21 11:47:38;;;;;;;7.17;4.50;;;8.10;99.90;;;;;;4973591;28;20282;-59
2021/11/21 11:50:07;;;;;;;10.13;5.20;;;8.20;99.90;;;;;;4973425;28;20254;-58
2021/11/21 11:52:54;;;;;;;6.67;4.47;;;8.30;99.90;;;;;;4973965;28;20616;-58
2021/11/21 11:55:21;;;;;;;5.93;4.07;;;8.50;99.90;;;;;;4974041;28;20220;-58
2021/11/21 11:57:47;;;;;;;5.73;4.50;;;8.60;99.90;;;;;;4973379;28;20228;-58
2021/11/21 12:00:29;;;;;;;6.73;5.10;;;8.70;99.90;;;;;;4973653;28;20726;-58
2021/11/21 12:02:58;;;;;;;6.23;4.43;;;8.60;99.90;;;;;;4973980;28;20237;-59
2021/11/21 12:05:31;;;;;;;6.80;4.33;;;8.70;99.90;;;;;;4973795;28;20236;-59
2021/11/21 12:08:15;;;;;;;6.87;4.83;;;8.70;99.90;;;;;;4973432;28;20282;-58
2021/11/21 12:10:47;;;;;;;5.67;4.03;;;8.80;99.90;;;;;;4973441;28;20711;-58
2021/11/21 12:13:27;;;;;;;6.60;4.57;;;8.90;99.90;;;;;;4973559;28;20212;-59
2021/11/21 12:15:57;;;;;;;5.90;4.40;;;8.90;99.90;;;;;;4973410;28;20672;-58
2021/11/21 12:18:57;;;;;;;7.40;5.47;;;8.80;99.90;;;;;;4973202;28;20228;-58
2021/11/21 12:21:44;;;;;;;5.53;4.13;;;8.80;99.90;;;;;;5031387;23;20241;-54
2021/11/21 12:24:23;;;;;;;6.13;4.67;;;8.70;99.90;;;;;;4992942;28;20217;-55
2021/11/21 12:26:51;;;;;;;5.90;4.70;;;8.70;99.90;;;;;;4992688;28;20294;-55
2021/11/21 12:29:31;;;;;;;5.67;4.70;;;8.70;99.90;;;;;;4992427;28;20298;-55
2021/11/21 12:32:19;;;;;;;5.13;4.17;;;8.60;99.90;;;;;;4992842;28;20299;-55
2021/11/21 12:34:48;;;;;;;6.33;4.00;;;8.60;99.90;;;;;;4992724;28;20208;-55
2021/11/21 12:37:35;;;;;;;5.60;4.23;;;8.20;99.90;;;;;;4992301;28;20278;-56
2021/11/21 12:40:23;;;;;;;6.50;4.10;;;7.80;99.90;;;;;;4992662;28;20235;-56
2021/11/21 12:43:03;;;;;;;4.77;3.67;;;7.80;99.90;;;;;;4992438;28;20580;-55
2021/11/21 12:45:32;;;;;;;6.17;4.33;;;7.90;99.90;;;;;;4992179;28;20698;-55
2021/11/21 12:48:01;;;;;;;5.60;4.67;;;7.70;99.90;;;;;;4992224;28;20492;-55
2021/11/21 12:50:30;;;;;;;7.20;5.40;;;7.70;99.90;;;;;;4992486;28;20227;-56
2021/11/21 12:53:08;;;;;;;5.50;4.33;;;7.80;99.90;;;;;;4992559;28;20715;-55